Time;durP1;ratioP1;P1;durP2;ratioP2;P2;SDS_P1;SDS_P2;PMS_P1;PMS_P2;Temp;Humidity;BMP_temperature;BMP_pressure;BME280_temperature;BME280_humidity;BME280_pressure;Samples;Min_cycle;Max_cycle;Signal;HPM_P1;HPM_P2
2024/01/12 00:01:18;;;;;;;9.60;2.20;;;;;;;-1.21;83.53;100941.30;108870;1252;1002911;-66
2024/01/12 00:04:06;;;;;;;8.50;2.50;;;;;;;-1.19;84.00;100946.52;109636;1253;68710;-63
2024/01/12 00:06:54;;;;;;;8.10;1.80;;;;;;;-1.17;83.31;100949.45;109542;1253;73025;-62
2024/01/12 00:09:43;;;;;;;8.50;2.20;;;;;;;-1.15;82.73;100945.60;109597;1254;56866;-63
2024/01/12 00:12:31;;;;;;;9.50;2.30;;;;;;;-1.15;82.75;100945.94;109607;1253;60035;-63
2024/01/12 00:15:19;;;;;;;8.90;2.20;;;;;;;-1.13;83.09;100944.85;109517;1254;70983;-63
2024/01/12 00:18:07;;;;;;;8.20;2.20;;;;;;;-1.14;82.45;100939.81;109581;1252;67979;-63
2024/01/12 00:20:55;;;;;;;8.00;2.50;;;;;;;-1.15;81.99;100942.98;109535;1254;73917;-64
2024/01/12 00:23:43;;;;;;;6.90;1.50;;;;;;;-1.18;82.49;100943.72;109537;1253;56918;-67
2024/01/12 00:26:31;;;;;;;7.90;1.90;;;;;;;-1.21;82.39;100947.23;109509;1253;58763;-68
2024/01/12 00:29:19;;;;;;;7.50;1.80;;;;;;;-1.23;82.39;100953.02;109405;1252;72329;-66
2024/01/12 00:32:07;;;;;;;8.20;2.10;;;;;;;-1.26;82.04;100950.11;109604;1253;66236;-66
2024/01/12 00:34:55;;;;;;;7.10;2.20;;;;;;;-1.30;81.65;100955.56;108686;1252;1002767;-65
2024/01/12 00:37:43;;;;;;;6.20;1.80;;;;;;;-1.35;81.43;100954.42;109562;1254;57083;-67
2024/01/12 00:40:31;;;;;;;6.90;1.90;;;;;;;-1.39;81.63;100952.38;108648;1253;1002981;-66
2024/01/12 00:43:19;;;;;;;7.80;2.00;;;;;;;-1.43;81.26;100954.17;108765;1252;1002267;-67
2024/01/12 00:46:06;;;;;;;8.30;2.30;;;;;;;-1.47;81.30;100949.88;109614;1253;66892;-62
2024/01/12 00:48:55;;;;;;;7.80;2.00;;;;;;;-1.53;80.88;100955.53;109579;1253;72519;-63
2024/01/12 00:51:44;;;;;;;8.90;2.10;;;;;;;-1.57;80.75;100954.71;109463;1254;57172;-63
2024/01/12 00:54:32;;;;;;;8.10;1.90;;;;;;;-1.60;80.61;100953.17;109339;1253;60180;-65
2024/01/12 00:57:19;;;;;;;8.00;1.80;;;;;;;-1.63;80.82;100958.45;109495;1252;73330;-63
2024/01/12 01:00:09;;;;;;;9.80;1.70;;;;;;;-1.66;81.02;100952.23;109632;1253;67966;-64
2024/01/12 01:02:57;;;;;;;7.00;1.90;;;;;;;-1.71;80.64;100956.64;109446;1253;73381;-63
2024/01/12 01:05:45;;;;;;;8.30;1.70;;;;;;;-1.76;81.04;100951.84;109496;1254;56954;-61
2024/01/12 01:08:33;;;;;;;5.00;1.50;;;;;;;-1.78;81.15;100950.45;109597;1253;60064;-65
2024/01/12 01:11:21;;;;;;;5.80;1.50;;;;;;;-1.80;81.21;100946.98;108804;1251;1002526;-63
2024/01/12 01:14:09;;;;;;;7.80;1.70;;;;;;;-1.82;81.58;100945.28;109602;1253;67580;-64
2024/01/12 01:16:57;;;;;;;6.20;1.60;;;;;;;-1.82;81.66;100939.72;109535;1254;72314;-63
2024/01/12 01:19:45;;;;;;;7.40;1.60;;;;;;;-1.83;81.53;100934.51;109464;1253;57003;-63
2024/01/12 01:22:34;;;;;;;9.80;1.80;;;;;;;-1.83;81.64;100930.70;109595;1252;60177;-64
2024/01/12 01:25:22;;;;;;;6.20;1.60;;;;;;;-1.85;81.85;100926.54;109523;1253;69651;-65
2024/01/12 01:28:10;;;;;;;7.30;1.80;;;;;;;-1.86;82.36;100922.38;108501;1254;1002573;-65
2024/01/12 01:30:58;;;;;;;6.40;1.80;;;;;;;-1.87;82.24;100917.68;109516;1253;73439;-66
2024/01/12 01:33:47;;;;;;;4.90;1.40;;;;;;;-1.88;82.25;100919.61;109450;1253;57784;-63
2024/01/12 01:36:35;;;;;;;6.60;1.50;;;;;;;-1.87;82.58;100913.52;108715;1252;1002173;-64
2024/01/12 01:39:23;;;;;;;10.90;2.00;;;;;;;-1.88;82.55;100910.39;109570;1253;71985;-67
2024/01/12 01:42:11;;;;;;;32.90;7.20;;;;;;;-1.90;82.06;100906.59;109589;1253;68620;-64
2024/01/12 01:45:00;;;;;;;57.60;15.60;;;;;;;-1.88;82.53;100908.48;109570;1253;72636;-64
2024/01/12 01:47:48;;;;;;;91.00;20.90;;;;;;;-1.84;82.76;100904.79;109465;1252;56918;-64
2024/01/12 01:50:36;;;;;;;115.90;28.50;;;;;;;-1.80;83.47;100901.95;109530;1253;61374;-63
2024/01/12 01:53:25;;;;;;;141.70;35.80;;;;;;;-1.75;83.17;100907.09;109403;1251;71957;-64
2024/01/12 01:56:13;;;;;;;121.00;32.40;;;;;;;-1.71;82.96;100901.13;109485;1253;67654;-64
2024/01/12 01:59:01;;;;;;;140.60;42.40;;;;;;;-1.68;82.68;100898.30;109435;1253;71487;-62
2024/01/12 02:01:48;;;;;;;97.70;30.90;;;;;;;-1.66;82.52;100901.23;109564;1254;56901;-64
2024/01/12 02:04:37;;;;;;;48.30;17.00;;;;;;;-1.66;82.53;100898.27;109546;1254;60356;-63
2024/01/12 02:07:25;;;;;;;31.50;11.80;;;;;;;-1.66;82.65;100899.66;109585;1252;72432;-63
2024/01/12 02:10:14;;;;;;;22.10;6.60;;;;;;;-1.66;82.85;100895.31;108840;1252;1003023;-63
2024/01/12 02:13:02;;;;;;;18.70;5.50;;;;;;;-1.66;82.61;100891.84;109593;1253;71525;-64
2024/01/12 02:15:51;;;;;;;13.90;4.60;;;;;;;-1.68;82.47;100891.17;109477;1252;57151;-63
2024/01/12 02:18:39;;;;;;;13.40;4.30;;;;;;;-1.70;82.39;100889.79;109655;1251;60342;-64
2024/01/12 02:21:28;;;;;;;13.70;3.40;;;;;;;-1.71;82.81;100889.64;109489;1251;72077;-62
2024/01/12 02:24:16;;;;;;;9.90;2.10;;;;;;;-1.71;82.62;100891.73;109647;1251;67874;-63
2024/01/12 02:27:04;;;;;;;9.30;2.00;;;;;;;-1.71;82.57;100894.17;109625;1251;72536;-64
2024/01/12 02:29:53;;;;;;;8.70;2.20;;;;;;;-1.71;82.63;100891.04;108854;1250;1002523;-65
2024/01/12 02:32:41;;;;;;;6.50;1.70;;;;;;;-1.70;82.63;100892.76;109578;1251;60291;-63
2024/01/12 02:35:29;;;;;;;8.20;1.80;;;;;;;-1.70;82.85;100897.11;109628;1251;70279;-64
2024/01/12 02:38:17;;;;;;;7.40;1.90;;;;;;;-1.71;82.77;100893.14;109587;1251;68044;-63
2024/01/12 02:41:05;;;;;;;7.80;2.00;;;;;;;-1.73;83.03;100890.17;109524;1251;72874;-66
2024/01/12 02:43:53;;;;;;;7.80;1.80;;;;;;;-1.73;83.64;100887.05;109658;1251;56925;-64
2024/01/12 02:46:41;;;;;;;9.40;1.80;;;;;;;-1.74;83.46;100886.55;109695;1251;60266;-65
2024/01/12 02:49:29;;;;;;;8.00;2.50;;;;;;;-1.77;83.52;100882.42;109687;1251;69818;-64
2024/01/12 02:52:16;;;;;;;11.00;4.40;;;;;;;-1.82;83.80;100879.34;109563;1251;67541;-63
2024/01/12 02:55:05;;;;;;;12.70;5.50;;;;;;;-1.85;83.94;100874.87;108912;1251;1002903;-64
2024/01/12 02:57:53;;;;;;;18.60;7.10;;;;;;;-1.87;84.17;100875.41;109337;1251;57952;-65
2024/01/12 03:00:41;;;;;;;23.60;8.40;;;;;;;-1.87;84.39;100873.52;109547;1251;60129;-64
2024/01/12 03:03:29;;;;;;;18.80;7.60;;;;;;;-1.91;84.34;100865.54;109579;1251;71975;-64
2024/01/12 03:06:17;;;;;;;16.00;6.60;;;;;;;-1.94;84.52;100863.50;109680;1251;66518;-64
2024/01/12 03:09:05;;;;;;;13.80;5.30;;;;;;;-2.03;84.68;100845.18;109670;1251;73350;-65
2024/01/12 03:11:53;;;;;;;10.70;4.00;;;;;;;-1.94;84.95;100850.63;109634;1251;58421;-64
2024/01/12 03:14:41;;;;;;;9.90;2.60;;;;;;;-1.94;85.14;100839.33;109677;1251;57742;-62
2024/01/12 03:17:29;;;;;;;8.10;2.70;;;;;;;-1.93;85.61;100837.75;109580;1251;71960;-64
2024/01/12 03:20:16;;;;;;;7.10;2.00;;;;;;;-1.94;85.59;100834.80;109651;1251;67836;-62
2024/01/12 03:23:04;;;;;;;7.20;2.10;;;;;;;-1.94;85.61;100832.71;108840;1251;1002475;-63
2024/01/12 03:25:52;;;;;;;9.00;2.40;;;;;;;-1.94;86.25;100834.27;109471;1251;57281;-63
2024/01/12 03:28:40;;;;;;;8.00;2.30;;;;;;;-1.93;86.49;100833.05;109601;1251;60389;-62
2024/01/12 03:31:27;;;;;;;6.40;1.90;;;;;;;-1.93;86.58;100828.52;109683;1251;71978;-63
2024/01/12 03:34:15;;;;;;;6.30;1.80;;;;;;;-1.93;86.40;100827.84;109662;1251;65575;-63
2024/01/12 03:37:03;;;;;;;10.70;2.20;;;;;;;-1.93;86.59;100825.05;109626;1251;72258;-64
2024/01/12 03:39:51;;;;;;;8.20;1.90;;;;;;;-1.94;86.53;100821.05;108894;1251;1002246;-63
2024/01/12 03:42:39;;;;;;;7.70;2.00;;;;;;;-1.96;86.62;100817.80;109639;1251;59090;-62
2024/01/12 03:45:27;;;;;;;7.30;1.70;;;;;;;-1.97;86.89;100816.07;109551;1251;72541;-63
2024/01/12 03:48:15;;;;;;;9.50;2.00;;;;;;;-1.97;86.85;100816.23;109653;1251;67857;-63
2024/01/12 03:51:04;;;;;;;9.60;2.40;;;;;;;-1.95;86.97;100813.42;109489;1251;72442;-63
2024/01/12 03:53:52;;;;;;;9.50;2.00;;;;;;;-1.94;86.99;100814.97;108807;1251;1002643;-63
2024/01/12 03:56:40;;;;;;;6.40;2.00;;;;;;;-1.91;87.26;100812.32;109668;1251;59228;-63
2024/01/12 03:59:28;;;;;;;8.10;1.70;;;;;;;-1.88;86.99;100808.29;108903;1251;1002789;-62
2024/01/12 04:02:16;;;;;;;6.30;1.60;;;;;;;-1.87;87.37;100804.79;109570;1251;65973;-63
2024/01/12 04:05:05;;;;;;;7.30;1.70;;;;;;;-1.87;87.26;100803.05;108727;1251;1002640;-63
2024/01/12 04:07:53;;;;;;;7.30;1.60;;;;;;;-1.86;87.49;100808.77;109688;1251;56912;-63
2024/01/12 04:10:41;;;;;;;7.20;1.50;;;;;;;-1.86;87.45;100807.23;109608;1251;58878;-62
2024/01/12 04:13:28;;;;;;;6.00;1.70;;;;;;;-1.88;87.35;100801.15;109602;1251;72308;-65
2024/01/12 04:16:16;;;;;;;6.30;1.80;;;;;;;-1.89;87.43;100799.77;108816;1251;1002209;-63
2024/01/12 04:19:04;;;;;;;5.40;1.50;;;;;;;-1.93;87.43;100794.09;109662;1251;72454;-63
2024/01/12 04:21:52;;;;;;;6.80;1.70;;;;;;;-1.94;87.82;100788.20;109575;1251;56882;-63
2024/01/12 04:24:40;;;;;;;6.90;1.80;;;;;;;-1.93;88.03;100783.12;109634;1251;60295;-64
2024/01/12 04:27:29;;;;;;;7.80;2.00;;;;;;;-1.90;88.49;100785.17;109649;1251;73257;-63
2024/01/12 04:30:16;;;;;;;10.30;2.20;;;;;;;-1.86;88.22;100782.51;109556;1251;68856;-64
2024/01/12 04:33:04;;;;;;;8.00;2.30;;;;;;;-1.86;88.43;100778.52;108809;1251;1002236;-65
2024/01/12 04:35:52;;;;;;;7.30;2.00;;;;;;;-1.85;88.54;100780.05;109668;1251;56916;-63
2024/01/12 04:38:40;;;;;;;9.20;2.10;;;;;;;-1.85;88.41;100777.62;109591;1252;60082;-62
2024/01/12 04:41:28;;;;;;;9.30;2.60;;;;;;;-1.87;88.65;100776.95;109690;1251;71038;-63
2024/01/12 04:44:15;;;;;;;8.90;2.30;;;;;;;-1.88;88.61;100775.74;109586;1251;67722;-64
2024/01/12 04:47:04;;;;;;;10.30;2.70;;;;;;;-1.89;88.57;100772.11;109625;1251;72476;-64
2024/01/12 04:49:52;;;;;;;10.50;2.50;;;;;;;-1.90;88.51;100772.81;109570;1250;58401;-62
2024/01/12 04:52:40;;;;;;;10.20;2.40;;;;;;;-1.89;88.72;100770.54;109571;1251;60054;-63
2024/01/12 04:55:28;;;;;;;8.80;2.20;;;;;;;-1.86;88.77;100761.80;109594;1251;73449;-63
2024/01/12 04:58:16;;;;;;;8.40;2.70;;;;;;;-1.84;89.06;100756.89;109572;1250;66854;-63
2024/01/12 05:01:04;;;;;;;11.60;3.40;;;;;;;-1.81;88.95;100754.59;109677;1251;72570;-64
2024/01/12 05:03:52;;;;;;;8.20;2.70;;;;;;;-1.77;89.26;100752.63;109608;1251;58141;-63
2024/01/12 05:06:40;;;;;;;11.10;3.00;;;;;;;-1.76;89.16;100747.04;109654;1251;60030;-63
2024/01/12 05:09:30;;;;;;;10.80;3.10;;;;;;;-1.74;89.35;100743.17;109560;1251;71300;-65
2024/01/12 05:12:18;;;;;;;10.50;3.00;;;;;;;-1.74;89.41;100741.42;109695;1250;67832;-64
2024/01/12 05:15:06;;;;;;;10.30;3.20;;;;;;;-1.73;89.51;100738.96;109601;1251;72588;-68
2024/01/12 05:17:54;;;;;;;8.50;2.60;;;;;;;-1.73;89.74;100734.28;109669;1250;57304;-64
2024/01/12 05:20:42;;;;;;;14.20;3.70;;;;;;;-1.75;89.88;100731.00;109471;1251;61476;-65
2024/01/12 05:23:30;;;;;;;11.30;3.30;;;;;;;-1.74;89.75;100728.21;109541;1251;69645;-65
2024/01/12 05:26:19;;;;;;;12.40;3.50;;;;;;;-1.75;89.88;100723.70;109603;1250;67013;-66
2024/01/12 05:29:08;;;;;;;15.70;4.10;;;;;;;-1.73;89.96;100722.27;109670;1250;72702;-64
2024/01/12 05:31:56;;;;;;;19.00;4.20;;;;;;;-1.71;89.96;100718.41;109543;1251;56827;-63
2024/01/12 05:34:44;;;;;;;13.00;3.90;;;;;;;-1.70;90.16;100707.95;109549;1251;60113;-62
2024/01/12 05:37:31;;;;;;;20.20;5.00;;;;;;;-1.70;90.25;100706.40;109660;1250;70231;-64
2024/01/12 05:40:19;;;;;;;19.70;5.30;;;;;;;-1.70;90.36;100698.23;109680;1250;67597;-63
2024/01/12 05:43:07;;;;;;;14.50;4.10;;;;;;;-1.71;90.37;100695.10;109612;1251;71244;-68
2024/01/12 05:45:55;;;;;;;14.40;3.80;;;;;;;-1.74;90.28;100691.50;109610;1251;56900;-64
2024/01/12 05:48:46;;;;;;;12.20;4.00;;;;;;;-1.80;90.43;100693.86;109565;1251;60050;-63
2024/01/12 05:51:34;;;;;;;12.20;3.70;;;;;;;-1.83;90.92;100688.34;109653;1251;71915;-64
2024/01/12 05:54:21;;;;;;;17.10;4.40;;;;;;;-1.82;91.07;100692.50;108868;1250;1002658;-67
2024/01/12 05:57:10;;;;;;;15.80;4.80;;;;;;;-1.82;91.28;100694.93;109655;1251;72342;-64
2024/01/12 05:59:59;;;;;;;14.70;4.50;;;;;;;-1.81;91.23;100695.27;109556;1251;57297;-65
2024/01/12 06:02:46;;;;;;;10.60;3.50;;;;;;;-1.81;91.34;100694.41;109604;1250;58900;-64
2024/01/12 06:05:35;;;;;;;13.00;3.30;;;;;;;-1.84;91.58;100690.80;109639;1251;72239;-64
2024/01/12 06:08:23;;;;;;;9.60;2.80;;;;;;;-1.85;91.65;100696.21;109699;1250;66882;-66
2024/01/12 06:11:11;;;;;;;9.30;2.60;;;;;;;-1.87;91.67;100692.58;109634;1250;72499;-64
2024/01/12 06:13:58;;;;;;;10.40;2.80;;;;;;;-1.86;92.06;100698.84;109636;1250;58855;-66
2024/01/12 06:16:46;;;;;;;11.10;3.40;;;;;;;-1.85;92.30;100699.67;109595;1250;60318;-64
2024/01/12 06:19:35;;;;;;;10.80;3.50;;;;;;;-1.83;92.28;100690.24;109449;1251;71915;-62
2024/01/12 06:22:23;;;;;;;12.00;3.70;;;;;;;-1.79;92.50;100685.14;109558;1251;66909;-64
2024/01/12 06:25:11;;;;;;;9.20;2.80;;;;;;;-1.78;92.76;100677.31;109554;1251;72710;-63
2024/01/12 06:27:59;;;;;;;10.20;2.40;;;;;;;-1.80;92.52;100678.02;109505;1251;56884;-66
2024/01/12 06:30:47;;;;;;;10.60;2.90;;;;;;;-1.82;92.86;100673.20;109490;1251;60069;-64
2024/01/12 06:33:35;;;;;;;10.90;3.30;;;;;;;-1.84;93.17;100669.75;108775;1252;1002869;-64
2024/01/12 06:36:23;;;;;;;11.90;2.70;;;;;;;-1.85;93.35;100664.38;109463;1251;67121;-64
2024/01/12 06:39:13;;;;;;;9.30;2.50;;;;;;;-1.88;93.55;100656.41;109534;1252;71688;-65
2024/01/12 06:42:01;;;;;;;8.80;2.90;;;;;;;-1.87;93.88;100655.54;108674;1253;1002373;-71
2024/01/12 06:44:50;;;;;;;8.20;2.90;;;;;;;-1.86;93.90;100648.38;109542;1251;58824;-71
2024/01/12 06:47:38;;;;;;;7.80;2.60;;;;;;;-1.83;94.37;100636.16;109595;1251;72000;-69
2024/01/12 06:50:28;;;;;;;9.00;2.60;;;;;;;-1.80;94.34;100632.79;109599;1252;66329;-69
2024/01/12 06:53:16;;;;;;;9.90;2.40;;;;;;;-1.79;94.13;100627.90;109529;1252;71065;-69
2024/01/12 06:56:06;;;;;;;9.30;2.80;;;;;;;-1.80;94.24;100624.10;109458;1251;57088;-69
2024/01/12 06:58:55;;;;;;;10.10;2.40;;;;;;;-1.81;94.42;100621.67;109602;1251;58698;-69
2024/01/12 07:01:43;;;;;;;8.60;2.10;;;;;;;-1.83;94.21;100621.19;109244;1253;71077;-70
2024/01/12 07:04:31;;;;;;;8.80;2.60;;;;;;;-1.83;94.17;100613.71;109378;1253;67920;-69
2024/01/12 07:07:19;;;;;;;9.60;2.80;;;;;;;-1.85;94.30;100617.39;109428;1252;72694;-69
2024/01/12 07:10:11;;;;;;;8.40;2.40;;;;;;;-1.85;94.82;100615.33;108528;1251;1002056;-72
2024/01/12 07:12:59;;;;;;;7.30;2.20;;;;;;;-1.87;94.68;100608.38;109296;1252;60412;-71
2024/01/12 07:15:47;;;;;;;9.60;2.30;;;;;;;-1.88;95.00;100608.23;109584;1251;70665;-65
2024/01/12 07:18:34;;;;;;;8.80;2.50;;;;;;;-1.88;94.92;100603.88;109590;1251;68497;-66
2024/01/12 07:21:22;;;;;;;8.80;2.80;;;;;;;-1.85;95.15;100601.39;109600;1251;72743;-67
2024/01/12 07:24:10;;;;;;;8.60;2.40;;;;;;;-1.82;95.12;100594.91;109542;1251;59826;-64
2024/01/12 07:26:58;;;;;;;7.10;2.10;;;;;;;-1.79;95.34;100588.59;109625;1251;61049;-63
2024/01/12 07:29:46;;;;;;;8.40;2.50;;;;;;;-1.74;95.39;100584.67;108855;1251;1002572;-66
2024/01/12 07:32:35;;;;;;;8.20;2.40;;;;;;;-1.71;95.05;100577.30;109647;1251;67817;-64
2024/01/12 07:35:23;;;;;;;9.00;2.70;;;;;;;-1.67;94.96;100574.80;109402;1250;71481;-63
2024/01/12 07:38:12;;;;;;;8.30;2.10;;;;;;;-1.62;94.98;100570.18;109605;1250;57819;-64
2024/01/12 07:40:59;;;;;;;8.80;1.90;;;;;;;-1.58;95.05;100558.43;109684;1250;60331;-63
2024/01/12 07:43:47;;;;;;;7.60;2.10;;;;;;;-1.52;94.75;100552.41;109688;1250;71868;-63
2024/01/12 07:46:36;;;;;;;7.80;2.10;;;;;;;-1.47;94.78;100548.48;108823;1250;1002129;-64
2024/01/12 07:49:24;;;;;;;6.30;1.80;;;;;;;-1.44;94.61;100537.98;109660;1250;71111;-64
2024/01/12 07:52:12;;;;;;;7.10;2.00;;;;;;;-1.40;94.70;100534.05;109619;1254;57006;-62
2024/01/12 07:55:06;;;;;;;7.40;2.30;;;;;;;-1.35;94.77;100534.48;109515;1250;60399;-62
2024/01/12 07:57:54;;;;;;;8.80;2.00;;;;;;;-1.31;95.12;100538.20;109619;1251;70737;-62
2024/01/12 08:00:42;;;;;;;11.40;3.00;;;;;;;-1.26;95.08;100543.52;109590;1251;66752;-63
2024/01/12 08:03:30;;;;;;;12.70;3.50;;;;;;;-1.20;95.02;100542.86;109722;1250;72402;-65
2024/01/12 08:06:20;;;;;;;10.30;2.90;;;;;;;-1.13;95.19;100533.66;109463;1251;57935;-63
2024/01/12 08:09:10;;;;;;;9.40;2.60;;;;;;;-1.06;95.13;100532.13;109671;1250;59045;-63
2024/01/12 08:11:58;;;;;;;9.00;3.10;;;;;;;-1.02;95.37;100525.23;109673;1250;73163;-64
2024/01/12 08:14:45;;;;;;;11.80;3.60;;;;;;;-0.99;95.53;100523.77;109621;1251;66697;-61
2024/01/12 08:17:33;;;;;;;18.70;4.40;;;;;;;-0.96;95.93;100517.25;109530;1251;72592;-61
2024/01/12 08:20:21;;;;;;;14.80;4.20;;;;;;;-0.93;96.12;100502.55;109532;1251;57390;-63
2024/01/12 08:23:08;;;;;;;17.10;3.70;;;;;;;-0.91;96.44;100503.02;109570;1251;61146;-63
2024/01/12 08:25:56;;;;;;;9.40;3.20;;;;;;;-0.91;96.97;100494.14;109600;1250;72805;-64
2024/01/12 08:28:45;;;;;;;12.90;3.60;;;;;;;-0.90;97.84;100488.73;109533;1251;66684;-63
2024/01/12 08:31:33;;;;;;;11.20;3.60;;;;;;;-0.87;98.35;100473.84;108764;1251;1002131;-62
2024/01/12 08:34:22;;;;;;;9.20;3.30;;;;;;;-0.77;98.83;100457.92;109473;1251;57345;-63
2024/01/12 08:37:10;;;;;;;9.20;3.20;;;;;;;-0.59;98.86;100453.63;109577;1251;57885;-64
2024/01/12 08:39:58;;;;;;;9.90;3.10;;;;;;;-0.31;98.47;100445.05;109532;1250;72924;-64
2024/01/12 08:42:46;;;;;;;9.10;3.00;;;;;;;0.02;97.35;100438.06;109555;1251;66935;-62
2024/01/12 08:45:34;;;;;;;9.40;2.90;;;;;;;0.27;96.43;100428.11;109594;1251;71127;-63
2024/01/12 08:48:22;;;;;;;7.80;2.40;;;;;;;0.39;95.81;100434.03;109597;1251;57284;-64
2024/01/12 08:51:10;;;;;;;7.60;2.40;;;;;;;0.44;95.56;100439.64;109625;1251;60152;-62
2024/01/12 08:53:58;;;;;;;9.50;2.50;;;;;;;0.48;95.93;100433.41;109430;1253;71736;-61
2024/01/12 08:56:46;;;;;;;9.10;2.80;;;;;;;0.45;96.15;100419.88;109540;1251;66648;-62
2024/01/12 08:59:34;;;;;;;7.30;2.40;;;;;;;0.37;97.08;100401.10;109575;1251;71080;-63
2024/01/12 09:02:22;;;;;;;7.60;2.50;;;;;;;0.37;97.69;100404.42;109577;1251;57546;-62
2024/01/12 09:05:11;;;;;;;10.90;3.00;;;;;;;0.32;98.33;100399.84;109440;1251;61324;-62
2024/01/12 09:07:59;;;;;;;9.90;3.60;;;;;;;0.29;98.78;100389.80;109386;1251;73435;-62
2024/01/12 09:10:50;;;;;;;9.30;2.90;;;;;;;0.31;99.14;100385.93;109626;1250;65618;-64
2024/01/12 09:13:38;;;;;;;10.60;2.80;;;;;;;0.30;99.59;100376.17;109518;1251;71398;-60
2024/01/12 09:16:26;;;;;;;8.50;2.90;;;;;;;0.27;99.78;100364.90;109589;1251;57416;-62
2024/01/12 09:19:17;;;;;;;9.30;2.60;;;;;;;0.25;99.97;100363.73;109542;1251;58781;-64
2024/01/12 09:22:06;;;;;;;10.00;2.90;;;;;;;0.23;100.00;100352.84;109578;1251;71692;-60
2024/01/12 09:24:54;;;;;;;9.70;2.50;;;;;;;0.20;100.00;100356.56;109605;1251;67975;-65
2024/01/12 09:27:44;;;;;;;10.10;2.50;;;;;;;0.20;100.00;100355.00;109641;1251;73762;-61
2024/01/12 09:30:32;;;;;;;9.60;2.70;;;;;;;0.16;100.00;100351.64;109250;1251;242439;-59
2024/01/12 09:33:19;;;;;;;7.10;2.30;;;;;;;0.17;100.00;100350.57;109671;1250;58411;-61
2024/01/12 09:36:08;;;;;;;8.90;2.60;;;;;;;0.11;100.00;100342.38;108874;1251;1002146;-61
2024/01/12 09:38:56;;;;;;;7.60;2.20;;;;;;;0.21;100.00;100339.09;109665;1251;68821;-61
2024/01/12 09:41:46;;;;;;;9.30;2.70;;;;;;;0.53;100.00;100333.02;109518;1251;71142;-61
2024/01/12 09:44:38;;;;;;;10.20;2.70;;;;;;;0.60;100.00;100332.45;109571;1251;57289;-63
2024/01/12 09:47:35;;;;;;;10.80;3.30;;;;;;;0.54;100.00;100327.77;109559;1251;61469;-62
2024/01/12 09:50:24;;;;;;;10.60;3.00;;;;;;;0.54;100.00;100327.61;109596;1251;72937;-62
2024/01/12 09:53:12;;;;;;;8.20;2.60;;;;;;;0.57;100.00;100315.46;109416;1251;66671;-61
2024/01/12 09:56:00;;;;;;;8.40;2.70;;;;;;;0.55;100.00;100304.87;109422;1251;71759;-60
2024/01/12 09:58:54;;;;;;;11.00;3.00;;;;;;;0.54;100.00;100303.69;109487;1251;57336;-60
2024/01/12 10:01:42;;;;;;;9.60;3.40;;;;;;;0.49;100.00;100302.96;109577;1251;59947;-61
2024/01/12 10:04:31;;;;;;;8.20;2.40;;;;;;;0.45;100.00;100298.38;109612;1251;72077;-61
2024/01/12 10:07:19;;;;;;;8.20;2.70;;;;;;;0.50;100.00;100302.59;109599;1251;67855;-60
2024/01/12 10:10:08;;;;;;;8.70;2.50;;;;;;;0.54;100.00;100301.25;109615;1251;74097;-63
2024/01/12 10:12:55;;;;;;;10.70;2.90;;;;;;;0.61;100.00;100283.35;109342;1250;57322;-62
2024/01/12 10:15:43;;;;;;;8.00;2.30;;;;;;;0.75;100.00;100280.46;109599;1251;58806;-61
2024/01/12 10:18:31;;;;;;;9.90;2.80;;;;;;;0.95;100.00;100285.19;109545;1251;73446;-64
2024/01/12 10:21:24;;;;;;;9.10;3.20;;;;;;;1.14;100.00;100285.38;109577;1250;66325;-62
2024/01/12 10:24:16;;;;;;;11.90;3.30;;;;;;;1.22;100.00;100283.05;109523;1250;72593;-60
2024/01/12 10:27:05;;;;;;;11.10;3.40;;;;;;;1.27;99.98;100280.05;109607;1253;57971;-62
2024/01/12 10:29:54;;;;;;;7.30;2.50;;;;;;;1.31;99.98;100279.20;109564;1250;58720;-64
2024/01/12 10:32:50;;;;;;;9.10;2.80;;;;;;;1.33;100.00;100277.20;109613;1251;73082;-60
2024/01/12 10:35:38;;;;;;;7.90;2.60;;;;;;;1.28;100.00;100273.75;108886;1251;1002174;-60
2024/01/12 10:38:29;;;;;;;11.40;3.40;;;;;;;1.26;100.00;100278.17;109598;1251;73744;-61
2024/01/12 10:41:24;;;;;;;9.60;2.90;;;;;;;1.29;100.00;100267.09;109331;1250;58542;-60
2024/01/12 10:44:15;;;;;;;7.80;2.70;;;;;;;1.29;100.00;100269.84;109527;1251;58242;-61
2024/01/12 10:47:10;;;;;;;9.00;2.90;;;;;;;1.31;100.00;100259.98;109042;1256;70764;-61
2024/01/12 10:50:06;;;;;;;9.80;3.00;;;;;;;1.34;100.00;100251.83;109111;1255;67658;-60
2024/01/12 10:53:17;;;;;;;8.90;3.30;;;;;;;1.44;100.00;100248.34;109083;1256;71065;-60
2024/01/12 10:56:07;;;;;;;9.10;3.30;;;;;;;1.48;100.00;100246.27;109161;1256;58759;-60
2024/01/12 10:58:55;;;;;;;8.20;3.10;;;;;;;1.52;100.00;100241.91;109007;1254;59002;-60
2024/01/12 11:01:43;;;;;;;8.80;3.30;;;;;;;1.56;100.00;100240.89;109233;1258;72007;-61
2024/01/12 11:04:32;;;;;;;8.40;3.10;;;;;;;1.64;100.00;100237.44;109040;1256;66302;-63
2024/01/12 11:07:21;;;;;;;10.50;3.40;;;;;;;1.68;100.00;100234.33;109146;1256;73645;-64
2024/01/12 11:10:10;;;;;;;10.30;2.80;;;;;;;1.73;100.00;100224.52;109143;1256;59394;-61
2024/01/12 11:13:00;;;;;;;7.00;2.10;;;;;;;1.80;100.00;100220.58;109071;1255;58802;-63
2024/01/12 11:15:53;;;;;;;8.90;2.90;;;;;;;1.85;100.00;100198.85;109115;1255;74139;-62
2024/01/12 11:18:41;;;;;;;8.90;2.80;;;;;;;1.93;100.00;100201.14;109327;1252;66731;-63
2024/01/12 11:21:29;;;;;;;8.90;2.80;;;;;;;1.98;100.00;100203.41;109477;1253;72749;-62
2024/01/12 11:24:20;;;;;;;8.90;2.80;;;;;;;1.99;100.00;100210.87;109513;1253;57317;-62
2024/01/12 11:27:14;;;;;;;7.80;3.00;;;;;;;2.01;100.00;100212.54;109516;1251;59996;-61
2024/01/12 11:30:09;;;;;;;9.90;3.10;;;;;;;2.00;100.00;100213.11;109520;1251;71501;-63
2024/01/12 11:33:06;;;;;;;8.20;2.80;;;;;;;1.93;100.00;100209.02;109203;1250;67949;-68
2024/01/12 11:35:54;;;;;;;9.10;3.30;;;;;;;1.90;100.00;100195.83;108815;1251;1002480;-63
2024/01/12 11:38:43;;;;;;;10.20;3.20;;;;;;;1.87;100.00;100191.42;109630;1251;58717;-65
2024/01/12 11:41:32;;;;;;;8.40;2.70;;;;;;;1.83;100.00;100191.23;109430;1251;57741;-63
2024/01/12 11:44:20;;;;;;;9.60;2.90;;;;;;;1.80;100.00;100190.30;109678;1251;71523;-62
2024/01/12 11:47:09;;;;;;;9.00;2.60;;;;;;;1.73;100.00;100192.30;109615;1252;68958;-62
2024/01/12 11:49:57;;;;;;;8.40;3.00;;;;;;;1.68;100.00;100189.20;109402;1253;72300;-64
2024/01/12 11:53:00;;;;;;;8.10;2.80;;;;;;;1.65;100.00;100182.29;109598;1251;57751;-63
2024/01/12 11:55:49;;;;;;;7.50;2.80;;;;;;;1.65;100.00;100182.15;109455;1252;60250;-64
2024/01/12 11:58:37;;;;;;;9.60;3.70;;;;;;;1.62;100.00;100171.76;109628;1251;72753;-63
2024/01/12 12:01:25;;;;;;;9.00;3.00;;;;;;;1.62;100.00;100167.36;109640;1251;68642;-62
2024/01/12 12:04:17;;;;;;;8.30;2.80;;;;;;;1.65;100.00;100155.73;109426;1251;73690;-63
2024/01/12 12:07:04;;;;;;;8.80;2.90;;;;;;;1.64;100.00;100154.89;109447;1253;57568;-64
2024/01/12 12:09:54;;;;;;;8.90;3.40;;;;;;;1.63;100.00;100153.52;109611;1251;59592;-63
2024/01/12 12:12:42;;;;;;;11.30;3.20;;;;;;;1.65;100.00;100149.79;109432;1251;73919;-67
2024/01/12 12:15:29;;;;;;;8.30;3.20;;;;;;;1.68;100.00;100145.97;108868;1253;1002375;-61
2024/01/12 12:18:18;;;;;;;8.80;3.30;;;;;;;1.72;100.00;100141.98;109541;1251;72429;-61
2024/01/12 12:21:06;;;;;;;7.10;2.50;;;;;;;1.75;100.00;100139.05;109387;1252;57327;-62
2024/01/12 12:23:54;;;;;;;10.00;2.70;;;;;;;1.78;100.00;100132.27;109619;1252;58938;-65
2024/01/12 12:26:43;;;;;;;7.50;2.50;;;;;;;1.78;100.00;100129.11;109584;1253;71889;-65
2024/01/12 12:29:30;;;;;;;9.20;2.40;;;;;;;1.78;100.00;100117.76;109588;1252;68602;-64
2024/01/12 12:32:18;;;;;;;7.70;2.30;;;;;;;1.75;100.00;100107.03;109598;1253;73678;-65
2024/01/12 12:35:13;;;;;;;8.00;3.00;;;;;;;1.76;100.00;100102.28;109487;1252;59796;-64
2024/01/12 12:38:01;;;;;;;8.60;2.70;;;;;;;1.74;100.00;100096.22;109424;1253;58795;-62
2024/01/12 12:40:52;;;;;;;8.10;2.40;;;;;;;1.76;100.00;100089.51;109585;1252;74125;-65
2024/01/12 12:43:40;;;;;;;7.70;2.80;;;;;;;1.78;100.00;100091.16;109587;1253;67902;-64
2024/01/12 12:46:29;;;;;;;7.60;2.90;;;;;;;1.79;100.00;100084.69;109361;1253;71481;-62
2024/01/12 12:49:16;;;;;;;8.10;2.70;;;;;;;1.79;100.00;100081.32;109512;1253;58668;-63
2024/01/12 12:52:05;;;;;;;8.30;2.70;;;;;;;1.82;100.00;100079.30;109603;1253;60082;-62